Time;durP1;ratioP1;P1;durP2;ratioP2;P2;SDS_P1;SDS_P2;PMS_P1;PMS_P2;Temp;Humidity;BMP_temperature;BMP_pressure;BME280_temperature;BME280_humidity;BME280_pressure;Samples;Min_cycle;Max_cycle;Signal;HPM_P1;HPM_P2
2023/07/06 00:01:46;;;;;;;6.82;6.07;;;15.10;99.90;;;;;;5047192;28;20063;-42
2023/07/06 00:04:14;;;;;;;6.05;5.45;;;15.10;99.90;;;;;;5046890;28;20089;-42
2023/07/06 00:06:39;;;;;;;6.25;5.22;;;15.10;99.90;;;;;;5047194;28;20386;-41
2023/07/06 00:09:05;;;;;;;6.30;5.07;;;15.10;99.90;;;;;;5046518;28;20029;-42
2023/07/06 00:11:36;;;;;;;6.18;5.30;;;15.10;99.90;;;;;;5047266;28;20587;-42
2023/07/06 00:14:04;;;;;;;5.65;4.93;;;15.20;99.90;;;;;;5046676;28;20104;-42
2023/07/06 00:16:29;;;;;;;5.50;4.80;;;15.20;99.90;;;;;;5048017;28;20021;-42
2023/07/06 00:18:58;;;;;;;6.50;5.18;;;15.20;99.90;;;;;;5046713;28;20048;-41
2023/07/06 00:21:27;;;;;;;5.30;4.80;;;15.20;99.90;;;;;;5046104;28;20511;-42
2023/07/06 00:23:53;;;;;;;6.88;4.65;;;15.20;99.90;;;;;;5047088;28;20028;-42
2023/07/06 00:26:22;;;;;;;6.95;4.93;;;15.20;99.90;;;;;;5046945;28;20079;-42
2023/07/06 00:28:48;;;;;;;5.07;4.57;;;15.20;99.90;;;;;;5045970;28;20748;-41
2023/07/06 00:31:31;;;;;;;4.90;4.43;;;15.20;99.90;;;;;;5046880;28;20028;-42
2023/07/06 00:33:57;;;;;;;;;;;15.20;99.90;;;;;;5046916;28;20073;-41
2023/07/06 00:36:22;;;;;;;5.25;3.92;;;15.20;99.90;;;;;;5046334;28;20379;-41
2023/07/06 00:38:48;;;;;;;4.93;4.43;;;15.20;99.90;;;;;;5046992;28;20484;-42
2023/07/06 00:41:14;;;;;;;6.07;5.07;;;15.20;99.90;;;;;;5046255;28;20540;-42
2023/07/06 00:43:54;;;;;;;5.43;4.30;;;15.30;99.90;;;;;;5045716;28;20025;-41
2023/07/06 00:46:22;;;;;;;5.72;4.82;;;15.30;99.90;;;;;;5046661;28;20039;-42
2023/07/06 00:48:50;;;;;;;5.85;4.75;;;15.30;99.90;;;;;;5046478;28;20528;-41
2023/07/06 00:51:39;;;;;;;4.88;4.40;;;15.30;99.90;;;;;;5045311;28;20373;-41
2023/07/06 00:54:13;;;;;;;5.13;4.63;;;15.30;99.90;;;;;;5046299;28;20040;-41
2023/07/06 00:56:43;;;;;;;6.28;4.63;;;15.30;99.90;;;;;;5045675;28;20492;-41
2023/07/06 00:59:13;;;;;;;4.65;4.18;;;15.30;99.90;;;;;;5045824;28;20029;-41
2023/07/06 01:01:46;;;;;;;7.45;4.93;;;15.20;99.90;;;;;;5046088;28;20029;-42
2023/07/06 01:04:16;;;;;;;6.13;4.60;;;15.20;99.90;;;;;;5046375;28;20032;-42
2023/07/06 01:06:47;;;;;;;5.97;4.90;;;15.30;99.90;;;;;;5045637;28;20091;-42
2023/07/06 01:09:17;;;;;;;5.75;4.95;;;15.20;99.90;;;;;;5026097;28;20068;-41
2023/07/06 01:11:44;;;;;;;7.72;5.53;;;15.20;99.90;;;;;;5040480;28;20025;-41
2023/07/06 01:14:14;;;;;;;6.47;4.95;;;15.20;99.90;;;;;;5046074;28;20067;-42
2023/07/06 01:16:45;;;;;;;5.13;4.47;;;15.20;99.90;;;;;;5045552;28;20477;-42
2023/07/06 01:20:01;;;;;;;6.40;4.78;;;15.10;99.90;;;;;;5045246;28;20044;-42
2023/07/06 01:22:57;;;;;;;5.32;4.43;;;15.10;99.90;;;;;;5045841;28;20060;-42
2023/07/06 01:25:31;;;;;;;4.93;4.40;;;15.00;99.90;;;;;;5045539;28;20036;-41
2023/07/06 01:28:22;;;;;;;6.18;4.70;;;15.00;99.90;;;;;;5045771;28;20112;-42
2023/07/06 01:30:59;;;;;;;6.70;4.50;;;15.00;99.90;;;;;;5046399;28;20025;-41
2023/07/06 01:33:43;;;;;;;5.95;4.60;;;14.90;99.90;;;;;;5044935;28;20037;-42
2023/07/06 01:36:34;;;;;;;5.90;4.50;;;14.90;99.90;;;;;;5045122;28;20107;-42
2023/07/06 01:39:21;;;;;;;6.30;4.85;;;14.80;99.90;;;;;;5035748;28;20064;-42
2023/07/06 01:42:10;;;;;;;4.88;4.30;;;14.80;99.90;;;;;;5045637;28;20057;-42
2023/07/06 01:44:49;;;;;;;5.22;4.72;;;14.70;99.90;;;;;;5045662;28;20021;-41
2023/07/06 01:47:17;;;;;;;5.97;4.75;;;14.70;99.90;;;;;;5044224;28;20078;-43
2023/07/06 01:49:43;;;;;;;6.38;5.10;;;14.70;99.90;;;;;;5045353;28;20025;-41
2023/07/06 01:52:36;;;;;;;6.00;4.78;;;14.70;99.90;;;;;;5045029;28;20370;-41
2023/07/06 01:55:20;;;;;;;4.68;4.13;;;14.60;99.90;;;;;;5045432;28;20051;-41
2023/07/06 01:58:07;;;;;;;5.50;4.80;;;14.60;99.90;;;;;;5044676;28;20068;-41
2023/07/06 02:00:39;;;;;;;6.65;4.97;;;14.60;99.90;;;;;;5044430;28;20082;-42
2023/07/06 02:03:06;;;;;;;5.97;4.57;;;14.60;99.90;;;;;;5045159;28;20021;-42
2023/07/06 02:05:33;;;;;;;6.22;4.85;;;14.60;99.90;;;;;;5044868;28;20072;-42
2023/07/06 02:07:59;;;;;;;6.18;4.85;;;14.60;99.90;;;;;;5044875;28;20459;-42
2023/07/06 02:10:25;;;;;;;5.82;4.88;;;14.60;99.90;;;;;;5045586;28;20025;-43
2023/07/06 02:12:51;;;;;;;6.82;5.10;;;14.70;99.90;;;;;;5044885;28;20025;-43
2023/07/06 02:15:20;;;;;;;5.70;4.63;;;14.70;99.90;;;;;;5044429;28;20025;-42
2023/07/06 02:17:47;;;;;;;5.15;4.65;;;14.70;99.90;;;;;;5045335;28;20064;-42
2023/07/06 02:20:16;;;;;;;6.85;5.07;;;14.70;99.90;;;;;;5033890;28;20132;-42
2023/07/06 02:22:45;;;;;;;6.85;5.15;;;14.70;99.90;;;;;;5044291;28;20025;-42
2023/07/06 02:25:12;;;;;;;5.57;4.78;;;14.80;99.90;;;;;;5044782;28;20033;-42
2023/07/06 02:27:38;;;;;;;6.03;5.40;;;14.80;99.90;;;;;;5043760;28;20033;-42
2023/07/06 02:30:07;;;;;;;5.97;5.38;;;14.90;99.90;;;;;;5044513;28;20727;-42
2023/07/06 02:32:33;;;;;;;6.75;5.32;;;14.90;99.90;;;;;;5044699;28;20060;-42
2023/07/06 02:34:59;;;;;;;7.25;5.30;;;14.90;99.90;;;;;;5044493;28;20386;-42
2023/07/06 02:37:25;;;;;;;5.63;5.00;;;15.00;99.90;;;;;;5045000;28;20024;-42
2023/07/06 02:39:51;;;;;;;6.43;4.90;;;15.00;99.90;;;;;;5044438;28;20041;-41
2023/07/06 02:42:18;;;;;;;5.82;5.10;;;15.00;99.90;;;;;;5044187;28;20385;-42
2023/07/06 02:44:47;;;;;;;5.15;4.65;;;15.00;99.90;;;;;;5044588;28;20025;-42
2023/07/06 02:47:13;;;;;;;5.90;5.15;;;15.00;99.90;;;;;;5044292;28;20147;-42
2023/07/06 02:49:39;;;;;;;6.30;4.95;;;15.00;99.90;;;;;;5043795;28;20484;-42
2023/07/06 02:52:27;;;;;;;5.07;4.45;;;15.00;99.90;;;;;;5048364;28;20104;-42
2023/07/06 02:54:53;;;;;;;5.68;4.32;;;14.90;99.90;;;;;;5048699;28;20025;-41
2023/07/06 02:57:19;;;;;;;5.07;4.28;;;14.90;99.90;;;;;;5048294;28;20474;-41
2023/07/06 02:59:51;;;;;;;5.20;4.28;;;14.90;99.90;;;;;;5047667;28;20029;-42
2023/07/06 03:02:17;;;;;;;5.40;4.13;;;14.90;99.90;;;;;;5048338;28;20032;-42
2023/07/06 03:04:42;;;;;;;5.30;4.32;;;14.80;99.90;;;;;;5047817;28;20024;-42
2023/07/06 03:07:08;;;;;;;4.45;4.00;;;14.90;99.90;;;;;;5048099;28;20061;-42
2023/07/06 03:09:34;;;;;;;4.78;3.58;;;14.80;99.90;;;;;;5048270;28;20079;-42
2023/07/06 03:11:59;;;;;;;4.97;3.95;;;14.80;99.90;;;;;;5047776;28;20021;-42
2023/07/06 03:14:25;;;;;;;4.78;4.15;;;14.80;99.90;;;;;;5047950;28;20033;-41
2023/07/06 03:16:53;;;;;;;6.95;4.90;;;14.70;99.90;;;;;;5047389;28;20031;-42
2023/07/06 03:19:20;;;;;;;6.35;4.18;;;14.70;99.90;;;;;;5048379;28;20029;-42
2023/07/06 03:21:46;;;;;;;6.32;3.97;;;14.80;99.90;;;;;;5048595;28;20071;-42
2023/07/06 03:24:12;;;;;;;6.85;3.40;;;14.80;99.90;;;;;;5047449;28;20433;-42
2023/07/06 03:26:39;;;;;;;5.03;3.78;;;14.80;99.90;;;;;;5048101;28;20098;-42
2023/07/06 03:29:09;;;;;;;5.70;3.95;;;14.80;99.90;;;;;;5048477;28;20116;-42
2023/07/06 03:31:35;;;;;;;4.30;3.90;;;14.70;99.90;;;;;;5047001;28;20036;-46
2023/07/06 03:34:08;;;;;;;5.53;3.90;;;14.70;99.90;;;;;;5048784;28;20029;-42
2023/07/06 03:36:34;;;;;;;8.25;4.25;;;14.80;99.90;;;;;;5047572;28;20036;-42
2023/07/06 03:39:01;;;;;;;7.32;4.40;;;14.80;99.90;;;;;;5047293;28;20408;-42
2023/07/06 03:41:27;;;;;;;3.97;3.55;;;14.80;99.90;;;;;;5047781;28;20492;-42
2023/07/06 03:43:56;;;;;;;4.55;3.83;;;14.80;99.90;;;;;;5047513;28;20025;-42
2023/07/06 03:46:31;;;;;;;5.53;3.78;;;14.70;99.90;;;;;;5046845;28;20037;-42
2023/07/06 03:48:57;;;;;;;3.45;3.15;;;14.70;99.90;;;;;;5048629;28;20103;-42
2023/07/06 03:51:22;;;;;;;4.60;3.53;;;14.70;99.90;;;;;;5047991;28;20182;-42
2023/07/06 03:53:48;;;;;;;4.65;3.55;;;14.70;99.90;;;;;;5047174;28;20093;-41
2023/07/06 03:56:15;;;;;;;7.60;3.40;;;14.70;99.90;;;;;;5047518;28;20825;-42
2023/07/06 03:58:42;;;;;;;5.25;3.50;;;14.70;99.90;;;;;;5047450;28;20782;-42
2023/07/06 04:01:08;;;;;;;4.63;3.08;;;14.70;99.90;;;;;;5046005;28;20048;-42
2023/07/06 04:03:34;;;;;;;5.07;3.28;;;14.70;99.90;;;;;;5047400;28;20025;-41
2023/07/06 04:06:04;;;;;;;4.47;3.25;;;14.70;99.90;;;;;;5047696;28;20049;-41
2023/07/06 04:08:31;;;;;;;5.90;4.00;;;14.70;99.90;;;;;;5047484;28;20037;-42
2023/07/06 04:10:56;;;;;;;6.95;3.78;;;14.70;99.90;;;;;;5047629;28;20021;-42
2023/07/06 04:13:22;;;;;;;3.97;3.40;;;14.70;99.90;;;;;;5046942;28;20044;-42
2023/07/06 04:15:51;;;;;;;3.67;3.28;;;14.70;99.90;;;;;;5047604;28;20035;-42
2023/07/06 04:18:17;;;;;;;4.55;3.33;;;14.80;99.90;;;;;;5047441;28;20021;-42
2023/07/06 04:20:43;;;;;;;5.20;3.10;;;14.80;99.90;;;;;;5046499;28;20036;-42
2023/07/06 04:23:09;;;;;;;3.13;2.83;;;14.80;99.90;;;;;;5046728;28;20112;-41
2023/07/06 04:25:36;;;;;;;4.97;2.85;;;14.80;99.90;;;;;;5046828;28;20116;-42
2023/07/06 04:28:13;;;;;;;4.38;3.00;;;14.80;99.90;;;;;;5045897;28;20217;-42
2023/07/06 04:30:44;;;;;;;3.85;3.42;;;14.80;99.90;;;;;;5046945;28;20075;-42
2023/07/06 04:33:19;;;;;;;3.63;3.03;;;14.80;99.90;;;;;;5046650;28;20029;-42
2023/07/06 04:35:51;;;;;;;5.00;3.03;;;14.80;99.90;;;;;;5046174;28;20033;-42
2023/07/06 04:38:18;;;;;;;3.80;2.92;;;14.90;99.90;;;;;;5045917;28;20079;-42
2023/07/06 04:40:46;;;;;;;3.85;2.97;;;14.90;99.90;;;;;;5046489;28;20124;-43
2023/07/06 04:43:12;;;;;;;4.38;3.03;;;14.90;99.90;;;;;;5045755;28;20029;-42
2023/07/06 04:45:37;;;;;;;3.47;3.08;;;14.90;99.90;;;;;;5046557;28;20025;-42
2023/07/06 04:48:05;;;;;;;4.43;2.47;;;14.90;99.90;;;;;;5046474;28;20491;-43
2023/07/06 04:50:37;;;;;;;5.50;2.78;;;14.90;99.90;;;;;;5045984;28;20513;-42
2023/07/06 04:53:03;;;;;;;4.13;2.95;;;14.90;99.90;;;;;;5046441;28;20704;-42
2023/07/06 04:55:30;;;;;;;5.35;2.85;;;15.00;99.90;;;;;;5045983;28;20036;-42
2023/07/06 04:58:00;;;;;;;5.50;2.97;;;15.00;99.90;;;;;;5047062;28;20021;-43
2023/07/06 05:00:31;;;;;;;4.90;2.85;;;15.00;99.90;;;;;;5046340;28;20110;-42
2023/07/06 05:03:03;;;;;;;5.10;2.58;;;15.00;99.90;;;;;;5045931;28;20029;-41
2023/07/06 05:05:32;;;;;;;4.20;2.80;;;15.00;99.90;;;;;;5046816;28;20041;-42
2023/07/06 05:07:57;;;;;;;5.57;3.17;;;15.10;99.90;;;;;;5046469;28;20074;-41
2023/07/06 05:10:25;;;;;;;6.78;3.45;;;15.00;99.90;;;;;;5045503;28;20021;-42
2023/07/06 05:12:52;;;;;;;3.08;2.78;;;15.00;99.90;;;;;;5045947;28;20025;-43
2023/07/06 05:15:19;;;;;;;5.20;3.40;;;15.00;99.90;;;;;;5046006;28;20033;-43
2023/07/06 05:17:44;;;;;;;5.13;2.92;;;15.00;99.90;;;;;;5046053;28;20033;-42
2023/07/06 05:20:14;;;;;;;5.85;3.00;;;15.00;99.90;;;;;;5046334;28;20063;-42
2023/07/06 05:22:48;;;;;;;6.10;3.42;;;15.00;99.90;;;;;;5042426;28;20028;-43
2023/07/06 05:25:18;;;;;;;6.47;3.60;;;15.10;99.90;;;;;;5045730;28;20111;-42
2023/07/06 05:27:45;;;;;;;5.22;3.10;;;15.10;99.90;;;;;;5045869;28;20020;-41
2023/07/06 05:30:14;;;;;;;5.07;3.05;;;15.20;99.90;;;;;;5046031;28;20036;-41
2023/07/06 05:32:39;;;;;;;7.78;3.63;;;15.20;99.90;;;;;;5045508;28;20108;-42
2023/07/06 05:35:06;;;;;;;5.40;3.10;;;15.30;99.90;;;;;;5045935;28;20112;-43
2023/07/06 05:37:33;;;;;;;6.63;3.67;;;15.30;99.90;;;;;;5045761;28;20017;-42
2023/07/06 05:39:59;;;;;;;8.02;3.75;;;15.30;99.90;;;;;;5045864;28;20029;-43
2023/07/06 05:42:25;;;;;;;5.35;3.40;;;15.40;99.90;;;;;;5046004;28;20029;-42
2023/07/06 05:44:51;;;;;;;4.38;3.10;;;15.50;99.90;;;;;;5047013;28;20027;-43
2023/07/06 05:47:16;;;;;;;6.32;3.08;;;15.60;99.90;;;;;;5046131;28;20020;-41
2023/07/06 05:49:42;;;;;;;5.72;2.95;;;15.60;99.90;;;;;;5045830;28;20032;-42
2023/07/06 05:52:08;;;;;;;6.45;3.25;;;15.60;99.90;;;;;;5043176;28;20021;-42
2023/07/06 05:54:33;;;;;;;5.40;3.53;;;15.60;99.90;;;;;;5043927;28;20119;-42
2023/07/06 05:57:03;;;;;;;8.40;3.38;;;15.60;99.90;;;;;;5044255;28;20021;-42
2023/07/06 05:59:41;;;;;;;8.20;3.85;;;15.70;99.90;;;;;;5045042;28;20036;-42
2023/07/06 06:02:09;;;;;;;8.88;4.18;;;15.70;99.90;;;;;;5044003;28;20033;-42
2023/07/06 06:04:36;;;;;;;5.55;3.50;;;15.70;99.90;;;;;;5044483;28;20025;-43
2023/07/06 06:07:02;;;;;;;10.15;3.90;;;15.70;99.90;;;;;;5043647;28;20049;-42
2023/07/06 06:09:28;;;;;;;9.02;4.13;;;15.70;99.90;;;;;;5044381;28;20037;-43
2023/07/06 06:11:54;;;;;;;7.82;4.10;;;15.80;99.90;;;;;;5044075;28;20068;-42
2023/07/06 06:14:21;;;;;;;6.00;3.60;;;15.80;99.90;;;;;;5023796;28;20562;-42
2023/07/06 06:16:47;;;;;;;7.63;4.60;;;15.90;99.90;;;;;;5038277;28;20033;-42
2023/07/06 06:19:13;;;;;;;6.28;4.28;;;15.90;99.90;;;;;;5043491;28;20025;-42
2023/07/06 06:21:39;;;;;;;6.75;4.55;;;16.00;99.90;;;;;;5043474;28;20668;-41
2023/07/06 06:24:08;;;;;;;7.10;4.38;;;16.10;99.90;;;;;;5043616;28;20039;-41
2023/07/06 06:26:36;;;;;;;10.02;5.53;;;16.20;99.90;;;;;;5044528;28;20098;-43
2023/07/06 06:29:05;;;;;;;9.43;5.07;;;16.30;99.90;;;;;;5044316;28;20029;-42
2023/07/06 06:31:32;;;;;;;7.63;4.82;;;16.30;99.90;;;;;;5044930;28;20021;-42
2023/07/06 06:34:00;;;;;;;7.75;4.82;;;16.40;99.90;;;;;;5044013;28;20152;-43
2023/07/06 06:36:26;;;;;;;7.00;4.75;;;16.50;99.90;;;;;;5044430;28;20128;-43
2023/07/06 06:38:51;;;;;;;7.03;5.55;;;16.50;99.90;;;;;;5045087;28;20111;-43
2023/07/06 06:41:17;;;;;;;7.75;4.50;;;16.60;99.90;;;;;;5043597;28;20521;-44
2023/07/06 06:43:46;;;;;;;8.63;5.13;;;16.60;99.90;;;;;;5044775;28;20025;-42
2023/07/06 06:46:13;;;;;;;11.23;6.03;;;16.70;99.90;;;;;;5044787;28;20048;-42
2023/07/06 06:48:40;;;;;;;8.73;6.03;;;16.70;99.90;;;;;;5043082;28;20075;-42
2023/07/06 06:51:07;;;;;;;11.77;6.35;;;16.80;99.90;;;;;;5044391;28;20021;-42
2023/07/06 06:53:34;;;;;;;10.50;6.22;;;16.90;99.90;;;;;;5044395;28;20100;-41
2023/07/06 06:56:00;;;;;;;12.00;6.82;;;16.90;99.90;;;;;;5043995;28;20146;-44
2023/07/06 06:58:25;;;;;;;11.07;6.57;;;17.00;99.90;;;;;;5044116;28;20528;-42
2023/07/06 07:00:58;;;;;;;7.78;5.43;;;17.00;99.90;;;;;;5044130;28;20083;-41
2023/07/06 07:03:25;;;;;;;8.50;5.53;;;17.00;99.90;;;;;;5043387;28;20385;-42
2023/07/06 07:06:11;;;;;;;9.65;6.32;;;17.10;99.90;;;;;;5043926;28;20071;-41
2023/07/06 07:08:39;;;;;;;12.13;7.78;;;17.20;99.90;;;;;;5044876;28;20029;-42
2023/07/06 07:11:06;;;;;;;11.65;7.63;;;17.30;99.90;;;;;;5043814;28;20108;-41
2023/07/06 07:13:36;;;;;;;10.52;7.05;;;17.40;99.90;;;;;;5044096;28;20181;-43
2023/07/06 07:16:02;;;;;;;13.02;8.20;;;17.50;99.90;;;;;;5043481;28;20041;-42
2023/07/06 07:18:28;;;;;;;11.07;7.60;;;17.60;99.90;;;;;;5044080;28;20017;-42
2023/07/06 07:20:54;;;;;;;11.30;7.35;;;17.60;99.90;;;;;;5044175;28;20059;-42
2023/07/06 07:23:24;;;;;;;10.57;7.47;;;17.60;99.90;;;;;;5032329;28;20017;-42
2023/07/06 07:25:50;;;;;;;8.43;6.72;;;17.70;99.90;;;;;;5044032;28;20086;-41
2023/07/06 07:28:16;;;;;;;13.30;8.90;;;17.80;99.90;;;;;;5043948;28;20025;-41
2023/07/06 07:30:46;;;;;;;11.80;8.73;;;17.90;99.90;;;;;;5043411;28;20040;-41
2023/07/06 07:33:14;;;;;;;11.77;7.47;;;18.00;99.90;;;;;;5043950;28;20572;-42
2023/07/06 07:35:44;;;;;;;12.90;8.82;;;18.00;99.90;;;;;;5044167;28;20031;-41
2023/07/06 07:38:09;;;;;;;11.07;8.38;;;17.90;99.90;;;;;;5046665;28;20025;-42
2023/07/06 07:40:35;;;;;;;11.63;8.35;;;17.90;99.90;;;;;;5047639;28;20071;-42
2023/07/06 07:43:01;;;;;;;9.98;8.20;;;17.90;99.90;;;;;;5047853;28;20484;-41
2023/07/06 07:45:28;;;;;;;9.82;7.70;;;17.90;99.90;;;;;;5046746;28;20044;-41
2023/07/06 07:47:55;;;;;;;14.02;9.07;;;17.90;99.90;;;;;;5048315;28;20029;-41
2023/07/06 07:50:21;;;;;;;11.02;8.10;;;18.00;99.90;;;;;;5047821;28;20025;-43
2023/07/06 07:52:48;;;;;;;10.30;7.65;;;18.10;99.90;;;;;;5047387;28;20037;-41
2023/07/06 07:55:16;;;;;;;12.13;8.85;;;18.20;99.90;;;;;;5047949;28;20035;-41
2023/07/06 07:57:43;;;;;;;12.07;8.27;;;18.40;99.90;;;;;;5047665;28;20082;-41
2023/07/06 08:00:10;;;;;;;10.32;7.20;;;18.60;99.90;;;;;;5046153;28;20076;-41
2023/07/06 08:02:36;;;;;;;11.27;8.73;;;18.70;99.90;;;;;;5047874;28;20079;-41
2023/07/06 08:05:09;;;;;;;13.45;9.10;;;18.70;99.90;;;;;;5046930;28;20239;-42
2023/07/06 08:07:35;;;;;;;10.98;7.55;;;18.90;99.90;;;;;;5046539;28;20033;-41
2023/07/06 08:10:00;;;;;;;10.88;7.88;;;18.90;99.90;;;;;;5047360;28;20021;-42
2023/07/06 08:12:26;;;;;;;11.45;8.35;;;19.00;99.90;;;;;;5046045;28;20488;-42
2023/07/06 08:14:51;;;;;;;13.45;8.20;;;19.00;99.90;;;;;;5047176;28;20286;-43
2023/07/06 08:17:17;;;;;;;10.07;8.35;;;18.90;99.90;;;;;;5047527;28;20029;-42
2023/07/06 08:19:45;;;;;;;8.75;7.63;;;18.80;99.90;;;;;;5046197;28;20068;-41
2023/07/06 08:22:11;;;;;;;8.57;7.05;;;18.90;99.90;;;;;;5046821;28;20103;-42
2023/07/06 08:24:39;;;;;;;8.50;7.57;;;18.90;99.90;;;;;;5045976;28;20140;-43
2023/07/06 08:27:05;;;;;;;8.20;6.75;;;19.00;99.90;;;;;;5045667;28;20013;-43
2023/07/06 08:29:31;;;;;;;11.77;7.38;;;19.10;99.90;;;;;;5047355;28;20384;-42
2023/07/06 08:31:58;;;;;;;10.40;8.23;;;19.10;99.90;;;;;;5046922;28;20027;-42
2023/07/06 08:34:26;;;;;;;10.05;8.07;;;19.20;99.90;;;;;;5046674;28;20025;-42
2023/07/06 08:36:51;;;;;;;11.77;9.00;;;19.30;99.90;;;;;;5047009;28;20049;-41
2023/07/06 08:39:17;;;;;;;10.70;9.00;;;19.30;99.90;;;;;;5047236;28;20025;-41
2023/07/06 08:41:46;;;;;;;10.45;8.30;;;19.40;99.90;;;;;;5045906;28;20095;-41
2023/07/06 08:44:14;;;;;;;10.35;7.90;;;19.40;99.90;;;;;;5046213;28;20059;-41
2023/07/06 08:46:45;;;;;;;8.77;7.18;;;19.50;99.90;;;;;;5046577;28;20017;-41
2023/07/06 08:49:33;;;;;;;10.18;6.35;;;19.60;99.90;;;;;;5044653;28;20400;-41
2023/07/06 08:52:03;;;;;;;8.07;6.97;;;19.70;99.90;;;;;;5046879;28;20033;-42
2023/07/06 08:54:30;;;;;;;10.18;8.05;;;19.70;99.90;;;;;;5045408;28;20476;-43
2023/07/06 08:57:18;;;;;;;10.48;7.18;;;19.70;99.90;;;;;;5046277;28;20025;-42
2023/07/06 08:59:48;;;;;;;9.57;6.82;;;19.70;99.90;;;;;;5046078;28;20048;-41
2023/07/06 09:02:25;;;;;;;9.37;6.60;;;19.80;99.90;;;;;;5045628;28;20071;-41
2023/07/06 09:04:53;;;;;;;8.32;6.85;;;19.90;99.90;;;;;;5046037;28;20384;-41
2023/07/06 09:07:42;;;;;;;8.70;6.97;;;19.90;99.90;;;;;;5045577;28;20642;-41
2023/07/06 09:10:23;;;;;;;8.95;6.68;;;19.90;99.90;;;;;;5045354;28;20021;-42
2023/07/06 09:12:50;;;;;;;10.15;6.75;;;19.90;99.90;;;;;;5045969;28;20029;-44
2023/07/06 09:15:26;;;;;;;8.95;6.50;;;19.90;99.90;;;;;;5045945;28;20061;-42
2023/07/06 09:17:51;;;;;;;11.10;6.85;;;19.80;99.90;;;;;;5045697;28;20719;-45
2023/07/06 09:20:19;;;;;;;8.82;6.63;;;19.80;99.90;;;;;;5045736;28;20481;-41
2023/07/06 09:22:46;;;;;;;9.40;6.15;;;19.80;99.90;;;;;;5045143;28;20075;-42
2023/07/06 09:25:44;;;;;;;7.70;6.18;;;19.80;99.90;;;;;;5046080;28;20029;-41
2023/07/06 09:28:29;;;;;;;6.97;5.38;;;19.90;99.90;;;;;;5045721;28;20032;-42
2023/07/06 09:31:08;;;;;;;7.28;5.65;;;20.00;99.90;;;;;;5025361;28;20108;-42
2023/07/06 09:33:34;;;;;;;9.38;5.97;;;20.00;99.90;;;;;;5042191;28;20017;-42
2023/07/06 09:36:00;;;;;;;7.72;5.47;;;20.00;99.90;;;;;;5046264;28;20534;-42
2023/07/06 09:38:27;;;;;;;8.10;5.68;;;20.00;99.90;;;;;;5044973;28;20063;-41
2023/07/06 09:40:53;;;;;;;8.70;5.95;;;20.00;99.90;;;;;;5046078;28;20114;-42
2023/07/06 09:43:23;;;;;;;7.40;5.60;;;20.00;99.90;;;;;;5045467;28;20024;-42
2023/07/06 09:45:51;;;;;;;8.60;5.88;;;19.90;99.90;;;;;;5045120;28;20025;-42
2023/07/06 09:48:26;;;;;;;7.78;5.10;;;19.90;99.90;;;;;;5045723;28;20025;-42
2023/07/06 09:50:57;;;;;;;6.05;5.03;;;19.90;99.90;;;;;;5045425;28;20042;-41
2023/07/06 09:53:38;;;;;;;6.80;5.57;;;19.90;99.90;;;;;;5045298;28;20409;-43
2023/07/06 09:56:09;;;;;;;9.35;6.00;;;20.10;99.90;;;;;;5045243;28;20025;-42
2023/07/06 09:58:35;;;;;;;6.03;4.85;;;20.20;99.90;;;;;;5044729;28;20036;-41
2023/07/06 10:01:15;;;;;;;7.95;4.82;;;20.30;99.90;;;;;;5045587;28;20029;-42
2023/07/06 10:04:18;;;;;;;7.13;5.03;;;20.40;99.90;;;;;;5045286;28;20021;-42
2023/07/06 10:07:06;;;;;;;8.25;5.40;;;20.50;99.90;;;;;;5044204;28;20657;-42
2023/07/06 10:09:44;;;;;;;6.07;4.47;;;20.60;99.90;;;;;;5044924;28;20699;-42
2023/07/06 10:12:16;;;;;;;4.43;3.55;;;20.70;99.90;;;;;;5044054;28;20025;-42
2023/07/06 10:14:47;;;;;;;6.13;3.60;;;20.80;99.90;;;;;;5044716;28;20051;-42
2023/07/06 10:17:35;;;;;;;4.95;3.95;;;20.80;99.90;;;;;;5045550;28;20063;-41
2023/07/06 10:20:34;;;;;;;5.07;3.70;;;20.90;99.90;;;;;;5044164;28;20108;-42
2023/07/06 10:23:28;;;;;;;5.57;3.97;;;21.00;99.90;;;;;;5040906;28;20154;-42
2023/07/06 10:26:13;;;;;;;5.35;3.75;;;21.00;99.90;;;;;;5043404;28;20178;-42
2023/07/06 10:28:43;;;;;;;5.68;3.45;;;21.00;99.90;;;;;;5045230;28;20029;-42
2023/07/06 10:31:16;;;;;;;6.15;4.20;;;21.00;99.90;;;;;;5041038;28;20132;-42
2023/07/06 10:33:55;;;;;;;5.82;4.60;;;21.10;99.90;;;;;;5044413;28;20044;-42
2023/07/06 10:36:32;;;;;;;6.95;4.05;;;21.10;99.90;;;;;;5042228;28;20037;-43
2023/07/06 10:39:03;;;;;;;5.32;4.00;;;21.10;99.90;;;;;;5045371;28;20170;-42
2023/07/06 10:41:32;;;;;;;7.05;4.82;;;21.10;99.90;;;;;;5044143;28;20036;-42
2023/07/06 10:44:01;;;;;;;5.30;4.10;;;21.10;99.90;;;;;;5044747;28;20061;-42
2023/07/06 10:46:27;;;;;;;5.78;4.00;;;21.20;99.90;;;;;;5044806;28;20029;-41
2023/07/06 10:48:57;;;;;;;6.40;4.40;;;21.20;99.90;;;;;;5043916;28;20033;-42
2023/07/06 10:51:24;;;;;;;6.13;3.47;;;21.20;99.90;;;;;;5044755;28;20132;-41
2023/07/06 10:54:02;;;;;;;5.32;3.45;;;21.30;99.90;;;;;;5044985;28;20446;-42
2023/07/06 10:56:30;;;;;;;5.88;3.90;;;21.30;99.90;;;;;;5044365;28;20017;-42
2023/07/06 10:59:00;;;;;;;5.03;3.40;;;21.40;99.90;;;;;;5044954;28;20095;-42
2023/07/06 11:01:37;;;;;;;5.88;3.45;;;21.40;99.90;;;;;;5043817;28;20083;-41
2023/07/06 11:04:52;;;;;;;4.68;3.45;;;21.50;99.90;;;;;;5024722;28;20037;-42
2023/07/06 11:07:43;;;;;;;6.63;4.35;;;21.60;99.90;;;;;;5043523;28;20076;-43
2023/07/06 11:10:14;;;;;;;5.18;3.53;;;21.60;99.90;;;;;;5043414;28;20032;-43
2023/07/06 11:13:15;;;;;;;5.40;3.63;;;21.70;99.90;;;;;;5047861;28;20045;-42
2023/07/06 11:15:56;;;;;;;5.47;3.97;;;21.80;99.90;;;;;;5048000;28;20025;-42
2023/07/06 11:18:21;;;;;;;6.63;3.50;;;22.00;99.90;;;;;;5038861;28;20563;-42
2023/07/06 11:21:14;;;;;;;4.85;3.80;;;22.00;99.90;;;;;;5047807;28;20033;-43
2023/07/06 11:23:48;;;;;;;6.80;3.90;;;22.10;99.90;;;;;;5027982;28;20047;-42
2023/07/06 11:26:54;;;;;;;5.15;3.58;;;22.10;99.90;;;;;;5036291;28;20052;-42
2023/07/06 11:29:24;;;;;;;5.85;3.50;;;22.10;99.90;;;;;;5039589;28;20765;-42
2023/07/06 11:32:07;;;;;;;5.80;3.13;;;22.10;99.90;;;;;;5047608;28;20027;-41
2023/07/06 11:34:57;;;;;;;3.60;3.28;;;22.30;99.90;;;;;;5047931;28;20032;-42
2023/07/06 11:37:47;;;;;;;4.32;3.45;;;22.40;99.90;;;;;;5047396;28;20060;-42
2023/07/06 11:41:00;;;;;;;5.38;3.22;;;22.50;99.90;;;;;;5027850;28;20098;-42
2023/07/06 11:43:32;;;;;;;5.63;3.45;;;22.60;99.90;;;;;;5037948;28;20439;-41
2023/07/06 11:46:00;;;;;;;5.27;3.33;;;22.60;99.90;;;;;;5048116;28;20029;-41
2023/07/06 11:48:39;;;;;;;4.47;3.85;;;22.60;99.90;;;;;;5047488;28;20025;-42
2023/07/06 11:51:05;;;;;;;3.50;2.72;;;22.70;99.90;;;;;;5047495;28;20079;-41
2023/07/06 11:54:29;;;;;;;5.20;3.13;;;22.80;99.90;;;;;;5048634;28;20029;-41
2023/07/06 11:56:32;;;;;;;4.75;3.38;;;22.90;99.90;;;;;;5043958;28;20037;-42
2023/07/06 11:59:01;;;;;;;6.30;3.85;;;23.10;99.90;;;;;;5046343;28;20033;-42
2023/07/06 12:01:40;;;;;;;4.80;3.13;;;23.00;99.90;;;;;;5047972;28;20041;-42
2023/07/06 12:04:26;;;;;;;3.72;2.50;;;23.00;99.90;;;;;;5047481;28;20028;-42
2023/07/06 12:06:53;;;;;;;3.85;2.80;;;22.90;99.90;;;;;;5047055;28;20100;-41
2023/07/06 12:09:22;;;;;;;3.95;2.50;;;22.80;99.90;;;;;;5045970;28;20036;-41
2023/07/06 12:12:06;;;;;;;5.53;3.45;;;22.70;99.90;;;;;;5047480;28;20033;-41
2023/07/06 12:14:34;;;;;;;6.82;2.92;;;22.50;99.90;;;;;;5046908;28;20017;-43
2023/07/06 12:17:01;;;;;;;3.13;2.70;;;22.40;99.90;;;;;;5047432;28;20519;-41
2023/07/06 12:19:28;;;;;;;3.20;2.45;;;22.30;99.90;;;;;;5046023;28;20025;-41
2023/07/06 12:21:56;;;;;;;3.67;3.10;;;22.20;99.90;;;;;;5046611;28;20028;-42
2023/07/06 12:24:25;;;;;;;3.83;2.90;;;22.10;99.90;;;;;;5046497;28;20029;-42
2023/07/06 12:26:55;;;;;;;4.93;2.70;;;22.10;99.90;;;;;;5046811;28;20025;-41
2023/07/06 12:29:26;;;;;;;3.58;2.65;;;22.00;99.90;;;;;;5046657;28;20230;-42
2023/07/06 12:32:00;;;;;;;4.00;2.53;;;22.00;99.90;;;;;;5046694;28;20029;-41
2023/07/06 12:34:30;;;;;;;5.20;2.78;;;22.00;99.90;;;;;;5046099;28;20017;-42
2023/07/06 12:37:00;;;;;;;3.55;2.83;;;21.90;99.90;;;;;;5047124;28;20037;-42
2023/07/06 12:39:27;;;;;;;5.18;2.88;;;21.90;99.90;;;;;;5046708;28;20183;-42
2023/07/06 12:41:54;;;;;;;5.22;2.90;;;21.70;99.90;;;;;;5046489;28;20037;-42
2023/07/06 12:44:22;;;;;;;4.03;2.70;;;21.60;99.90;;;;;;5046987;28;20029;-42
2023/07/06 12:46:58;;;;;;;5.13;2.38;;;21.40;99.90;;;;;;5045879;28;20025;-42
2023/07/06 12:49:23;;;;;;;5.03;3.10;;;21.40;99.90;;;;;;5046212;28;20024;-43
2023/07/06 12:51:58;;;;;;;5.65;2.72;;;21.20;99.90;;;;;;5047226;28;20033;-42
2023/07/06 12:54:24;;;;;;;4.45;2.88;;;21.10;99.90;;;;;;5045944;28;20052;-42
2023/07/06 12:57:18;;;;;;;5.13;3.13;;;21.00;99.90;;;;;;5046278;28;20465;-42
2023/07/06 13:00:05;;;;;;;3.70;2.47;;;20.80;99.90;;;;;;5045943;28;20114;-42
2023/07/06 13:02:36;;;;;;;5.97;2.80;;;20.70;99.90;;;;;;5045715;28;20025;-43
2023/07/06 13:05:26;;;;;;;7.40;3.10;;;20.60;99.90;;;;;;5046130;28;20451;-43
2023/07/06 13:08:08;;;;;;;4.53;2.65;;;20.60;99.90;;;;;;5045591;28;20276;-43